createdAt,value
2023-04-16T00:04:04.267Z,9.32
2023-04-16T00:07:10.695Z,8.65
2023-04-16T00:10:05.991Z,8.70
2023-04-16T00:12:47.511Z,9.75
2023-04-16T00:24:05.184Z,9.13
2023-04-16T00:26:35.425Z,8.55
2023-04-16T00:29:03.795Z,10.02
2023-04-16T00:31:33.681Z,10.15
2023-04-16T00:38:13.977Z,8.95
2023-04-16T00:41:38.571Z,7.68
2023-04-16T00:44:08.365Z,8.18
2023-04-16T00:47:03.676Z,8.02
2023-04-16T00:49:32.507Z,7.47
2023-04-16T00:52:02.676Z,7.65
2023-04-16T00:54:33.089Z,7.88
2023-04-16T00:57:02.345Z,8.30
2023-04-16T00:59:33.975Z,7.63
2023-04-16T01:02:02.211Z,8.15
2023-04-16T01:04:46.155Z,7.55
2023-04-16T01:07:14.244Z,7.78
2023-04-16T01:09:42.464Z,9.48
2023-04-16T01:12:11.493Z,10.52
2023-04-16T01:14:41.097Z,10.38
2023-04-16T01:17:10.389Z,10.98
2023-04-16T01:19:43.348Z,10.30
2023-04-16T01:22:42.841Z,10.00
2023-04-16T01:25:18.342Z,8.65
2023-04-16T01:27:46.600Z,7.90
2023-04-16T01:30:16.652Z,7.38
2023-04-16T01:33:06.397Z,9.45
2023-04-16T01:35:36.640Z,7.30
2023-04-16T01:42:31.064Z,3.70
2023-04-16T01:44:59.266Z,3.60
2023-04-16T01:47:29.534Z,3.70
2023-04-16T01:49:58.073Z,3.97
2023-04-16T02:00:57.455Z,3.85
2023-04-16T02:03:27.078Z,4.43
2023-04-16T02:05:56.455Z,4.60
2023-04-16T02:08:34.889Z,4.35
2023-04-16T02:11:03.298Z,4.65
2023-04-16T02:13:32.525Z,5.35
2023-04-16T02:17:04.480Z,5.70
2023-04-16T02:23:51.536Z,10.00
2023-04-16T02:26:23.984Z,11.80
2023-04-16T02:28:52.296Z,15.43
2023-04-16T02:31:26.435Z,15.45
2023-04-16T02:33:54.848Z,16.30
2023-04-16T02:36:29.048Z,15.68
2023-04-16T02:39:00.100Z,15.82
2023-04-16T02:41:28.355Z,16.10
2023-04-16T02:43:56.877Z,15.75
2023-04-16T02:46:26.241Z,15.13
2023-04-16T02:48:55.553Z,14.65
2023-04-16T02:51:23.704Z,14.70
2023-04-16T02:53:51.982Z,6.85
2023-04-16T02:56:21.588Z,7.43
2023-04-16T02:58:49.738Z,6.90
2023-04-16T03:01:18.385Z,6.43
2023-04-16T03:03:46.768Z,6.85
2023-04-16T03:06:15.006Z,7.88
2023-04-16T03:08:43.156Z,9.50
2023-04-16T03:11:11.532Z,11.90
2023-04-16T03:14:05.868Z,11.65
2023-04-16T03:16:40.128Z,12.93
2023-04-16T03:19:08.691Z,11.18
2023-04-16T03:21:37.868Z,12.30
2023-04-16T03:24:06.070Z,11.90
2023-04-16T03:26:34.253Z,12.25
2023-04-16T03:29:03.245Z,12.07
2023-04-16T03:31:34.650Z,11.15
2023-04-16T03:34:04.270Z,10.45
2023-04-16T03:36:34.165Z,9.98
2023-04-16T03:39:40.486Z,9.10
2023-04-16T03:42:18.063Z,10.07
2023-04-16T03:44:46.416Z,10.20
2023-04-16T03:47:16.810Z,8.95
2023-04-16T03:49:46.401Z,9.35
2023-04-16T03:52:20.833Z,9.60
2023-04-16T03:54:50.489Z,8.98
2023-04-16T03:57:25.282Z,8.50
2023-04-16T03:59:56.757Z,8.65
2023-04-16T04:02:28.784Z,8.13
2023-04-16T04:04:57.116Z,7.80
2023-04-16T04:07:25.431Z,8.07
2023-04-16T04:09:54.348Z,8.43
2023-04-16T04:12:23.324Z,8.20
2023-04-16T04:14:51.532Z,6.75
2023-04-16T04:17:21.851Z,6.25
2023-04-16T04:20:00.930Z,5.82
2023-04-16T04:22:31.933Z,7.22
2023-04-16T04:25:00.228Z,7.20
2023-04-16T04:27:32.408Z,6.45
2023-04-16T04:30:13.978Z,7.60
2023-04-16T04:37:10.080Z,7.82
2023-04-16T04:39:47.741Z,8.38
2023-04-16T04:42:43.489Z,8.75
2023-04-16T04:45:12.765Z,8.32
2023-04-16T04:47:46.729Z,7.45
2023-04-16T04:50:16.253Z,6.47
2023-04-16T04:52:45.817Z,6.55
2023-04-16T04:55:16.012Z,7.45
2023-04-16T04:57:45.207Z,7.60
2023-04-16T05:00:13.840Z,8.00
2023-04-16T05:02:53.472Z,6.90
2023-04-16T05:05:26.010Z,7.35
2023-04-16T05:07:55.680Z,6.97
2023-04-16T05:10:23.922Z,7.18
2023-04-16T05:13:10.444Z,7.05
2023-04-16T05:15:46.260Z,6.28
2023-04-16T05:22:39.620Z,8.00
2023-04-16T05:25:10.030Z,7.90
2023-04-16T05:27:42.053Z,6.03
2023-04-16T05:30:11.362Z,6.75
2023-04-16T05:32:41.422Z,6.68
2023-04-16T05:35:11.513Z,7.13
2023-04-16T05:45:50.066Z,6.90
2023-04-16T05:48:18.335Z,6.63
2023-04-16T05:50:57.725Z,6.97
2023-04-16T05:53:26.368Z,6.43
2023-04-16T05:55:54.650Z,7.25
2023-04-16T05:58:28.753Z,7.07
2023-04-16T06:00:58.439Z,7.40
2023-04-16T06:03:28.011Z,6.75
2023-04-16T06:06:00.491Z,6.40
2023-04-16T06:08:31.731Z,5.97
2023-04-16T06:11:01.148Z,5.60
2023-04-16T06:13:29.295Z,5.95
2023-04-16T06:15:58.940Z,5.60
2023-04-16T06:18:29.206Z,5.43
2023-04-16T06:20:58.938Z,5.03
2023-04-16T06:23:28.243Z,6.20
2023-04-16T06:25:56.411Z,5.80
2023-04-16T06:28:24.912Z,6.95
2023-04-16T06:35:25.517Z,6.03
2023-04-16T06:37:54.774Z,6.10
2023-04-16T06:40:23.158Z,6.82
2023-04-16T06:42:52.867Z,6.40
2023-04-16T06:45:21.341Z,6.25
2023-04-16T06:47:52.657Z,5.38
2023-04-16T06:50:26.655Z,6.28
2023-04-16T06:52:57.656Z,5.40
2023-04-16T06:55:25.906Z,5.55
2023-04-16T06:57:54.168Z,6.05
2023-04-16T07:00:30.856Z,5.30
2023-04-16T07:03:00.339Z,6.18
2023-04-16T07:05:30.024Z,6.47
2023-04-16T07:08:01.077Z,6.15
2023-04-16T07:10:30.270Z,6.55
2023-04-16T07:12:58.629Z,5.90
2023-04-16T07:15:29.835Z,5.18
2023-04-16T07:18:00.981Z,5.72
2023-04-16T07:20:36.275Z,5.20
2023-04-16T07:23:04.613Z,4.22
2023-04-16T07:25:33.954Z,5.65
2023-04-16T07:28:02.131Z,5.68
2023-04-16T07:30:34.170Z,6.13
2023-04-16T07:33:02.747Z,5.93
2023-04-16T07:35:38.388Z,5.80
2023-04-16T07:38:07.609Z,4.80
2023-04-16T07:40:36.418Z,6.57
2023-04-16T07:43:04.681Z,5.72
2023-04-16T07:45:37.789Z,5.22
2023-04-16T07:48:06.615Z,6.18
2023-04-16T07:50:38.464Z,6.60
2023-04-16T07:53:12.213Z,8.50
2023-04-16T07:55:45.717Z,8.93
2023-04-16T08:02:23.146Z,6.93
2023-04-16T08:09:11.417Z,6.45
2023-04-16T08:16:04.902Z,4.53
2023-04-16T08:18:36.136Z,5.78
2023-04-16T08:21:33.615Z,6.38
2023-04-16T08:24:18.495Z,6.78
2023-04-16T08:26:47.792Z,6.85
2023-04-16T08:34:00.716Z,5.47
2023-04-16T08:36:32.680Z,5.43
2023-04-16T08:39:07.054Z,5.03
2023-04-16T08:41:45.117Z,4.97
2023-04-16T08:52:20.394Z,4.72
2023-04-16T08:54:58.536Z,3.67
2023-04-16T09:01:57.427Z,4.57
2023-04-16T09:08:53.794Z,4.25
2023-04-16T09:15:47.084Z,4.20
2023-04-16T09:22:20.249Z,3.55
2023-04-16T09:25:40.217Z,3.30
2023-04-16T09:28:10.454Z,3.90
2023-04-16T09:30:47.975Z,3.42
2023-04-16T09:33:23.014Z,3.88
2023-04-16T09:36:10.852Z,3.63
2023-04-16T09:38:57.585Z,3.63
2023-04-16T09:41:28.709Z,3.40
2023-04-16T09:44:35.795Z,3.17
2023-04-16T09:47:10.617Z,3.58
2023-04-16T09:50:39.966Z,3.03
2023-04-16T09:53:11.954Z,2.90
2023-04-16T10:00:09.024Z,3.33
2023-04-16T10:03:19.309Z,3.15
2023-04-16T10:06:57.895Z,3.33
2023-04-16T10:09:33.705Z,3.10
2023-04-16T10:12:02.094Z,2.35
2023-04-16T10:15:21.897Z,3.05
2023-04-16T10:18:41.123Z,2.47
2023-04-16T10:25:36.187Z,2.70
2023-04-16T10:32:18.727Z,2.40
2023-04-16T10:39:14.745Z,2.80
2023-04-16T10:46:24.941Z,3.00
2023-04-16T10:49:01.336Z,2.55
2023-04-16T10:51:31.625Z,2.72
2023-04-16T10:58:30.169Z,1.40
2023-04-16T11:01:57.361Z,1.38
2023-04-16T11:04:32.079Z,1.00
2023-04-16T11:07:16.973Z,1.17
2023-04-16T11:09:47.854Z,1.08
2023-04-16T11:12:18.660Z,1.55
2023-04-16T11:14:50.302Z,1.50
2023-04-16T11:17:31.623Z,1.10
2023-04-16T11:20:50.180Z,1.40
2023-04-16T11:23:25.092Z,1.17
2023-04-16T11:26:31.022Z,1.33
2023-04-16T11:30:03.147Z,1.30
2023-04-16T11:32:38.171Z,1.23
2023-04-16T11:35:15.313Z,1.02
2023-04-16T11:38:38.244Z,1.20
2023-04-16T11:41:08.070Z,1.20
2023-04-16T11:43:37.560Z,1.20
2023-04-16T11:46:13.367Z,1.30
2023-04-16T11:49:17.434Z,1.55
2023-04-16T11:52:02.276Z,1.25
2023-04-16T11:54:35.213Z,1.30
2023-04-16T11:57:29.870Z,1.20
2023-04-16T12:04:25.100Z,1.30
2023-04-16T12:07:10.472Z,1.50
2023-04-16T12:09:41.329Z,1.77
2023-04-16T12:12:30.821Z,1.10
2023-04-16T12:15:03.877Z,1.02
2023-04-16T12:17:35.216Z,1.20
2023-04-16T12:20:08.888Z,1.10
2023-04-16T12:22:39.321Z,1.10
2023-04-16T12:25:26.490Z,1.35
2023-04-16T12:28:29.723Z,1.17
2023-04-16T12:30:58.491Z,1.85
2023-04-16T12:33:27.006Z,1.30
2023-04-16T12:35:56.516Z,1.02
2023-04-16T12:38:26.955Z,1.30
2023-04-16T12:41:22.486Z,1.30
2023-04-16T12:43:52.206Z,1.05
2023-04-16T12:46:20.474Z,1.48
2023-04-16T12:49:14.760Z,1.40
2023-04-16T12:51:45.182Z,1.15
2023-04-16T12:54:15.180Z,1.30
2023-04-16T12:56:44.460Z,1.30
2023-04-16T12:59:17.912Z,1.02
2023-04-16T13:01:48.510Z,1.30
2023-04-16T13:04:19.235Z,1.25
2023-04-16T13:06:48.034Z,1.30
2023-04-16T13:09:24.945Z,1.33
2023-04-16T13:11:55.530Z,1.40
2023-04-16T13:14:28.267Z,1.10
2023-04-16T13:17:00.672Z,1.52
2023-04-16T13:19:33.987Z,1.35
2023-04-16T13:22:02.594Z,1.27
2023-04-16T13:24:32.180Z,1.25
2023-04-16T13:27:00.667Z,1.60
2023-04-16T13:29:30.814Z,1.20
2023-04-16T13:32:02.299Z,1.40
2023-04-16T13:34:30.614Z,1.38
2023-04-16T13:36:59.157Z,1.48
2023-04-16T13:39:28.697Z,1.73
2023-04-16T13:41:58.037Z,1.60
2023-04-16T13:44:27.824Z,1.50
2023-04-16T13:46:57.588Z,1.20
2023-04-16T13:49:26.039Z,1.40
2023-04-16T13:51:55.395Z,1.30
2023-04-16T13:54:23.948Z,1.50
2023-04-16T13:56:52.561Z,1.50
2023-04-16T13:59:21.525Z,1.23
2023-04-16T14:01:50.250Z,1.40
2023-04-16T14:04:22.482Z,1.48
2023-04-16T14:06:50.961Z,1.20
2023-04-16T14:09:19.360Z,1.50
2023-04-16T14:11:47.880Z,1.30
2023-04-16T14:14:16.769Z,1.20
2023-04-16T14:16:45.302Z,1.20
2023-04-16T14:19:14.561Z,1.38
2023-04-16T14:21:44.303Z,1.35
2023-04-16T14:25:16.155Z,1.30
2023-04-16T14:32:38.415Z,1.30
2023-04-16T14:35:08.750Z,1.20
2023-04-16T14:38:35.293Z,1.48
2023-04-16T14:41:56.674Z,1.50
2023-04-16T14:45:17.149Z,1.50
2023-04-16T14:48:17.129Z,1.50
2023-04-16T14:51:11.233Z,1.80
2023-04-16T14:54:05.597Z,1.52
2023-04-16T14:56:58.768Z,1.25
2023-04-16T15:00:29.665Z,1.42
2023-04-16T15:11:22.411Z,1.20
2023-04-16T15:13:52.705Z,1.30
2023-04-16T15:16:21.619Z,2.83
2023-04-16T15:18:52.587Z,1.20
2023-04-16T15:21:23.180Z,1.25
2023-04-16T15:23:51.908Z,1.33
2023-04-16T15:26:23.608Z,1.60
2023-04-16T15:28:52.249Z,1.45
2023-04-16T15:31:23.131Z,1.40
2023-04-16T15:33:59.974Z,1.60
2023-04-16T15:36:30.816Z,1.90
2023-04-16T15:38:59.632Z,1.23
2023-04-16T15:41:30.816Z,1.38
2023-04-16T15:44:03.876Z,1.27
2023-04-16T15:46:32.751Z,1.30
2023-04-16T15:49:03.445Z,1.65
2023-04-16T15:51:32.676Z,1.30
2023-04-16T15:54:01.921Z,1.38
2023-04-16T15:56:33.376Z,1.27
2023-04-16T15:59:04.020Z,3.20
2023-04-16T16:01:33.064Z,1.88
2023-04-16T16:04:09.142Z,2.10
2023-04-16T16:06:40.098Z,1.90
2023-04-16T16:09:12.251Z,1.50
2023-04-16T16:11:43.680Z,2.00
2023-04-16T16:14:18.774Z,1.95
2023-04-16T16:16:47.452Z,1.25
2023-04-16T16:19:18.764Z,2.10
2023-04-16T16:21:50.122Z,1.60
2023-04-16T16:24:19.704Z,2.17
2023-04-16T16:26:51.366Z,2.50
2023-04-16T16:29:24.415Z,2.25
2023-04-16T16:31:55.137Z,1.77
2023-04-16T16:34:26.472Z,2.20
2023-04-16T16:36:56.282Z,1.58
2023-04-16T16:39:31.828Z,2.35
2023-04-16T16:42:03.348Z,1.92
2023-04-16T16:44:34.782Z,1.80
2023-04-16T16:47:04.002Z,2.20
2023-04-16T16:49:33.394Z,3.10
2023-04-16T16:52:02.591Z,3.17
2023-04-16T16:54:31.849Z,2.60
2023-04-16T16:57:02.950Z,2.80
2023-04-16T16:59:31.952Z,4.43
2023-04-16T17:02:01.525Z,3.55
2023-04-16T17:04:31.433Z,3.75
2023-04-16T17:07:01.192Z,3.97
2023-04-16T17:09:35.756Z,3.95
2023-04-16T17:12:07.251Z,3.55
2023-04-16T17:14:37.111Z,4.05
2023-04-16T17:17:08.275Z,5.10
2023-04-16T17:19:37.580Z,4.80
2023-04-16T17:22:07.289Z,4.38
2023-04-16T17:24:38.492Z,3.58
2023-04-16T17:27:09.859Z,4.32
2023-04-16T17:29:38.430Z,5.20
2023-04-16T17:32:07.365Z,4.80
2023-04-16T17:34:41.748Z,5.20
2023-04-16T17:37:10.209Z,4.75
2023-04-16T17:39:39.823Z,5.13
2023-04-16T17:42:10.478Z,3.75
2023-04-16T17:44:42.722Z,4.40
2023-04-16T17:47:11.914Z,4.97
2023-04-16T17:49:41.784Z,4.10
2023-04-16T17:52:12.902Z,4.38
2023-04-16T17:54:43.839Z,3.22
2023-04-16T17:57:14.900Z,3.80
2023-04-16T17:59:49.068Z,3.22
2023-04-16T18:02:18.055Z,4.90
2023-04-16T18:04:49.604Z,3.78
2023-04-16T18:07:24.134Z,5.10
2023-04-16T18:09:53.401Z,3.50
2023-04-16T18:12:25.033Z,3.20
2023-04-16T18:14:54.651Z,4.18
2023-04-16T18:17:23.425Z,3.47
2023-04-16T18:19:51.808Z,3.58
2023-04-16T18:22:21.024Z,3.95
2023-04-16T18:24:51.531Z,3.28
2023-04-16T18:27:23.245Z,2.90
2023-04-16T18:29:54.760Z,4.28
2023-04-16T18:32:30.611Z,3.40
2023-04-16T18:35:00.927Z,3.55
2023-04-16T18:37:32.817Z,4.05
2023-04-16T18:40:01.870Z,3.72
2023-04-16T18:42:31.354Z,3.78
2023-04-16T18:45:04.935Z,3.85
2023-04-16T18:47:40.786Z,3.45
2023-04-16T18:50:14.963Z,4.30
2023-04-16T18:52:44.267Z,3.97
2023-04-16T18:55:16.289Z,4.10
2023-04-16T18:57:49.326Z,3.38
2023-04-16T19:00:28.204Z,3.10
2023-04-16T19:03:02.045Z,2.97
2023-04-16T19:05:31.889Z,2.50
2023-04-16T19:08:01.751Z,2.38
2023-04-16T19:10:30.662Z,2.75
2023-04-16T19:13:08.042Z,2.20
2023-04-16T19:15:40.810Z,2.28
2023-04-16T19:18:11.381Z,2.90
2023-04-16T19:20:42.336Z,2.42
2023-04-16T19:23:13.758Z,2.35
2023-04-16T19:25:44.527Z,2.72
2023-04-16T19:28:13.364Z,2.65
2023-04-16T19:30:48.214Z,2.45
2023-04-16T19:33:17.618Z,3.00
2023-04-16T19:35:50.911Z,2.28
2023-04-16T19:38:20.352Z,3.13
2023-04-16T19:40:52.561Z,3.28
2023-04-16T19:43:22.373Z,2.95
2023-04-16T19:45:54.113Z,2.47
2023-04-16T19:48:23.239Z,2.50
2023-04-16T19:50:52.408Z,2.20
2023-04-16T19:53:22.028Z,2.00
2023-04-16T19:55:51.678Z,2.70
2023-04-16T19:58:20.591Z,2.92
2023-04-16T20:00:49.504Z,1.23
2023-04-16T20:03:20.549Z,1.27
2023-04-16T20:05:52.409Z,1.77
2023-04-16T20:08:23.368Z,1.90
2023-04-16T20:10:55.640Z,1.77
2023-04-16T20:13:25.070Z,2.22
2023-04-16T20:15:54.713Z,2.22
2023-04-16T20:18:28.137Z,2.22
2023-04-16T20:20:57.942Z,2.42
2023-04-16T20:23:26.371Z,3.05
2023-04-16T20:25:55.177Z,3.30
2023-04-16T20:28:24.419Z,2.95
2023-04-16T20:30:56.827Z,3.03
2023-04-16T20:33:26.878Z,3.00
2023-04-16T20:35:56.682Z,2.60
2023-04-16T20:38:27.039Z,2.92
2023-04-16T20:41:06.360Z,2.53
2023-04-16T20:43:38.646Z,2.65
2023-04-16T20:46:06.917Z,2.20
2023-04-16T20:48:37.048Z,2.55
2023-04-16T20:51:06.567Z,1.90
2023-04-16T20:53:35.291Z,2.05
2023-04-16T20:56:04.550Z,1.80
2023-04-16T20:58:32.827Z,2.00
2023-04-16T21:01:01.355Z,1.75
2023-04-16T21:03:29.787Z,1.70
2023-04-16T21:06:01.938Z,1.67
2023-04-16T21:08:30.189Z,1.80
2023-04-16T21:10:58.428Z,2.38
2023-04-16T21:13:26.612Z,2.10
2023-04-16T21:15:54.881Z,2.08
2023-04-16T21:18:23.986Z,2.10
2023-04-16T21:20:52.215Z,1.70
2023-04-16T21:23:21.971Z,2.65
2023-04-16T21:25:50.298Z,2.17
2023-04-16T21:28:19.623Z,1.70
2023-04-16T21:30:48.057Z,1.65
2023-04-16T21:33:16.882Z,1.50
2023-04-16T21:35:45.207Z,1.85
2023-04-16T21:38:13.416Z,1.88
2023-04-16T21:40:43.033Z,1.90
2023-04-16T21:43:11.206Z,2.13
2023-04-16T21:45:40.045Z,2.35
2023-04-16T21:48:08.509Z,1.73
2023-04-16T21:50:36.740Z,1.30
2023-04-16T21:53:09.082Z,1.77
2023-04-16T21:55:37.864Z,1.70
2023-04-16T21:58:07.756Z,1.92
2023-04-16T22:00:36.018Z,1.50
2023-04-16T22:03:06.285Z,1.80
2023-04-16T22:05:34.780Z,1.45
2023-04-16T22:08:10.916Z,2.08
2023-04-16T22:10:49.634Z,1.67
2023-04-16T22:13:19.246Z,1.42
2023-04-16T22:15:47.426Z,1.70
2023-04-16T22:18:15.721Z,1.90
2023-04-16T22:20:43.903Z,2.30
2023-04-16T22:23:12.164Z,2.25
2023-04-16T22:25:40.343Z,2.10
2023-04-16T22:28:08.520Z,2.40
2023-04-16T22:30:38.026Z,2.15
2023-04-16T22:33:06.214Z,2.10
2023-04-16T22:35:36.079Z,2.45
2023-04-16T22:38:04.330Z,2.22
2023-04-16T22:40:33.096Z,2.40
2023-04-16T22:43:01.324Z,2.33
2023-04-16T22:45:29.671Z,2.50
2023-04-16T22:47:59.605Z,2.33
2023-04-16T22:50:31.559Z,2.38
2023-04-16T22:52:59.840Z,2.70
2023-04-16T22:55:28.124Z,2.80
2023-04-16T22:57:56.242Z,2.17
2023-04-16T23:00:25.120Z,2.53
2023-04-16T23:02:53.339Z,2.33
2023-04-16T23:05:23.171Z,2.20
2023-04-16T23:07:51.421Z,2.20
2023-04-16T23:10:19.584Z,2.33
2023-04-16T23:12:47.777Z,2.15
2023-04-16T23:15:17.508Z,2.50
2023-04-16T23:17:46.183Z,2.47
2023-04-16T23:20:14.813Z,2.10
2023-04-16T23:22:44.334Z,2.30
2023-04-16T23:25:12.526Z,2.55
2023-04-16T23:27:40.607Z,2.60
2023-04-16T23:30:09.855Z,2.85
2023-04-16T23:32:38.083Z,2.88
2023-04-16T23:35:07.101Z,2.95
2023-04-16T23:37:36.657Z,3.10
2023-04-16T23:40:08.300Z,3.05
2023-04-16T23:42:36.445Z,3.30
2023-04-16T23:45:04.861Z,2.90
2023-04-16T23:47:33.110Z,3.50
2023-04-16T23:50:01.548Z,3.47
2023-04-16T23:52:29.799Z,3.10
2023-04-16T23:54:57.921Z,3.15
2023-04-16T23:57:27.461Z,3.40
2023-04-16T23:59:55.609Z,3.47
